Main page
METAR-TAF:

METAR-TAF

Airports :

Erfurt–Weimar Airport

Erfurt, Germany

latitude: 50-59N, longitude: 010-58E, elevation: 315 m

Current weather observation

The report was made 33 minutes ago, at 02:50 UTC
Wind 7 kt from the Southwest
Temperature 14°C
Humidity 72%
Pressure 1018 hPa
Visibility 10 km or more
no clouds below 1500 m and no cumulonimbus

METAR: EDDE 200250Z 22007KT CAVOK 14/09 Q1018

Time: 05:23 (03:23 UTC)

Forecast

The report was made 4 hours and 23 minutes ago, at 23:00 UTC
Forecast valid from 20 at 00 UTC to 20 at 24 UTC
Wind 5 kt from the West/Southwest
Visibility 10 km or more
no clouds below 1500 m and no cumulonimbus
Becoming
from 20 at 08 UTC to 20 at 10 UTC
Wind 10 kt from the West/Northwest
Becoming
from 20 at 16 UTC to 20 at 18 UTC
Wind 5 kt from the Northwest

TAF: EDDE 192300Z 2000/2024 24005KT CAVOK BECMG 2008/2010 29010KT BECMG 2016/2018 31005KT

Weather observations and forecasts of more than 4000 airports (METAR and TAF reports).

The available stations are represented by yellow and red dots on the map.

Hover mouse over dot to see the name of the station.

Then click to see weather observations and forecasts.

To change the map : click on the green buttons with a black cross to zoom in, on the green button with a dash to zoom out, or on the green arrows for adjacent maps.


METAR-TAF: